Time;durP1;ratioP1;P1;durP2;ratioP2;P2;SDS_P1;SDS_P2;PMS_P1;PMS_P2;Temp;Humidity;BMP_temperature;BMP_pressure;BME280_temperature;BME280_humidity;BME280_pressure;Samples;Min_cycle;Max_cycle;Signal;HPM_P1;HPM_P2
2023/07/11 00:00:18;;;;;;;;;;;17.40;99.90;;;;;;5029560;28;19937;-96
2023/07/11 00:02:45;;;;;;;;;;;17.40;99.90;;;;;;5003762;28;19925;-95
2023/07/11 00:05:14;;;;;;;;;;;17.30;99.90;;;;;;5007505;28;19932;-95
2023/07/11 00:07:40;;;;;;;;;;;17.20;99.90;;;;;;5006457;28;19997;-95
2023/07/11 00:10:07;;;;;;;;;;;17.00;99.90;;;;;;5005330;28;19926;-96
2023/07/11 00:12:32;;;;;;;;;;;16.80;99.90;;;;;;5002610;28;19930;-95
2023/07/11 00:14:58;;;;;;;;;;;16.60;99.90;;;;;;5022885;28;19988;-96
2023/07/11 00:17:24;;;;;;;;;;;16.50;99.90;;;;;;4987065;28;19925;-95
2023/07/11 00:19:50;;;;;;;;;;;16.40;99.90;;;;;;5002725;28;20017;-95
2023/07/11 00:22:16;;;;;;;;;;;16.40;99.90;;;;;;4997166;28;19976;-96
2023/07/11 00:24:41;;;;;;;;;;;16.50;99.90;;;;;;5001993;28;19929;-96
2023/07/11 00:27:07;;;;;;;;;;;16.40;99.90;;;;;;5015255;28;20365;-94
2023/07/11 00:29:33;;;;;;;;;;;16.30;99.90;;;;;;5001996;28;19973;-95
2023/07/11 00:31:58;;;;;;;;;;;16.20;99.90;;;;;;5007971;28;19932;-95
2023/07/11 00:34:24;;;;;;;;;;;16.20;99.90;;;;;;5004377;28;19926;-96
2023/07/11 00:36:50;;;;;;;;;;;16.10;99.90;;;;;;4995003;28;19926;-96
2023/07/11 00:39:16;;;;;;;;;;;16.10;99.90;;;;;;4990558;28;19936;-96
2023/07/11 00:41:42;;;;;;;;;;;16.00;99.90;;;;;;4988712;28;20068;-96
2023/07/11 00:44:15;;;;;;;;;;;16.00;99.90;;;;;;4990282;28;19933;-96
2023/07/11 00:46:41;;;;;;;;;;;15.90;99.90;;;;;;5004122;28;19925;-96
2023/07/11 00:49:08;;;;;;;;;;;15.90;99.90;;;;;;4992864;28;19933;-95
2023/07/11 00:51:37;;;;;;;;;;;15.90;99.90;;;;;;5020880;28;20019;-96
2023/07/11 00:54:03;;;;;;;;;;;15.90;99.90;;;;;;5022580;28;20124;-96
2023/07/11 00:56:35;;;;;;;;;;;15.80;99.90;;;;;;4987109;28;19964;-94
2023/07/11 00:59:01;;;;;;;;;;;15.80;99.90;;;;;;5005328;28;19933;-95
2023/07/11 01:01:27;;;;;;;;;;;15.80;99.90;;;;;;5019823;28;19926;-93
2023/07/11 01:03:53;;;;;;;;;;;15.90;99.90;;;;;;4997561;28;19933;-94
2023/07/11 01:06:21;;;;;;;;;;;16.00;99.90;;;;;;5010882;28;19952;-96
2023/07/11 01:08:48;;;;;;;;;;;16.00;99.90;;;;;;5022090;28;19926;-95
2023/07/11 01:11:14;;;;;;;;;;;16.00;99.90;;;;;;5002211;28;19936;-94
2023/07/11 01:13:39;;;;;;;;;;;16.10;99.90;;;;;;4985670;28;20402;-95
2023/07/11 01:16:05;;;;;;;;;;;16.20;99.90;;;;;;4984949;28;19926;-96
2023/07/11 01:18:31;;;;;;;;;;;16.20;99.90;;;;;;5002616;28;19965;-96
2023/07/11 01:20:57;;;;;;;;;;;16.30;99.90;;;;;;4989598;28;19949;-96
2023/07/11 01:23:23;;;;;;;;;;;16.30;99.90;;;;;;4980197;28;19926;-95
2023/07/11 01:25:49;;;;;;;;;;;16.20;99.90;;;;;;4992066;28;19925;-95
2023/07/11 01:28:15;;;;;;;;;;;16.20;99.90;;;;;;4986131;28;19933;-96
2023/07/11 01:30:40;;;;;;;;;;;16.20;99.90;;;;;;4989391;28;19945;-96
2023/07/11 01:33:06;;;;;;;;;;;16.30;99.90;;;;;;5018044;28;19937;-95
2023/07/11 01:35:32;;;;;;;;;;;16.40;99.90;;;;;;4984072;28;19937;-94
2023/07/11 01:37:57;;;;;;;;;;;16.40;99.90;;;;;;4975137;28;19933;-96
2023/07/11 01:40:23;;;;;;;;;;;16.50;99.90;;;;;;4986286;28;20380;-95
2023/07/11 01:42:49;;;;;;;;;;;16.50;99.90;;;;;;4991716;28;19925;-96
2023/07/11 01:45:14;;;;;;;;;;;16.60;99.90;;;;;;5006312;28;19967;-96
2023/07/11 01:47:40;;;;;;;;;;;16.60;99.90;;;;;;4979653;28;19926;-95
2023/07/11 01:50:07;;;;;;;;;;;16.70;99.90;;;;;;5005453;28;19925;-95
2023/07/11 01:52:32;;;;;;;;;;;16.70;99.90;;;;;;5005935;28;19937;-96
2023/07/11 01:54:59;;;;;;;;;;;16.80;99.90;;;;;;4984525;28;19945;-95
2023/07/11 01:57:25;;;;;;;;;;;16.90;99.90;;;;;;4997318;28;19993;-95
2023/07/11 01:59:51;;;;;;;;;;;16.90;99.90;;;;;;5001849;28;19925;-95
2023/07/11 02:02:17;;;;;;;;;;;17.00;99.90;;;;;;5002634;28;19937;-95
2023/07/11 02:04:43;;;;;;;;;;;17.00;99.90;;;;;;4986036;28;19925;-94
2023/07/11 02:07:09;;;;;;;;;;;17.00;99.90;;;;;;5002860;28;19930;-96
2023/07/11 02:09:35;;;;;;;;;;;17.10;99.90;;;;;;5004961;28;19933;-96
2023/07/11 02:12:01;;;;;;;;;;;17.10;99.90;;;;;;5001050;28;19925;-95
2023/07/11 02:14:27;;;;;;;;;;;17.10;99.90;;;;;;5025782;28;20369;-96
2023/07/11 02:16:53;;;;;;;;;;;17.10;99.90;;;;;;4987865;28;19925;-94
2023/07/11 02:19:20;;;;;;;;;;;17.10;99.90;;;;;;5009420;28;20527;-94
2023/07/11 02:21:46;;;;;;;;;;;17.10;99.90;;;;;;4998149;28;19925;-95
2023/07/11 02:24:12;;;;;;;;;;;17.10;99.90;;;;;;5018109;28;20404;-95
2023/07/11 02:26:38;;;;;;;;;;;17.10;99.90;;;;;;5020368;28;19931;-95
2023/07/11 02:29:05;;;;;;;;;;;17.00;99.90;;;;;;5013034;28;19981;-94
2023/07/11 02:31:31;;;;;;;;;;;17.00;99.90;;;;;;5005842;28;20347;-95
2023/07/11 02:33:57;;;;;;;;;;;17.00;99.90;;;;;;5007138;28;19925;-95
2023/07/11 02:36:23;;;;;;;;;;;17.00;99.90;;;;;;4995108;28;19985;-96
2023/07/11 02:38:48;;;;;;;;;;;17.00;99.90;;;;;;5007943;28;19925;-94
2023/07/11 02:41:15;;;;;;;;;;;17.00;99.90;;;;;;5025377;28;20012;-96
2023/07/11 02:43:43;;;;;;;;;;;16.90;99.90;;;;;;5024095;28;19932;-95
2023/07/11 02:46:09;;;;;;;;;;;16.90;99.90;;;;;;4989292;28;19926;-96
2023/07/11 02:48:35;;;;;;;;;;;16.90;99.90;;;;;;4991022;28;19957;-95
2023/07/11 02:51:00;;;;;;;;;;;16.90;99.90;;;;;;4999930;28;19926;-95
2023/07/11 02:53:26;;;;;;;;;;;16.90;99.90;;;;;;5010600;28;19933;-96
2023/07/11 02:55:57;;;;;;;;;;;16.90;99.90;;;;;;4988469;28;19933;-94
2023/07/11 02:58:24;;;;;;;;;;;16.90;99.90;;;;;;4994331;28;19926;-94
2023/07/11 03:00:50;;;;;;;;;;;16.90;99.90;;;;;;4992442;28;20040;-95
2023/07/11 03:03:16;;;;;;;;;;;16.90;99.90;;;;;;5004589;28;19926;-95
2023/07/11 03:05:42;;;;;;;;;;;16.90;99.90;;;;;;4997045;28;20204;-95
2023/07/11 03:08:08;;;;;;;;;;;17.00;99.90;;;;;;5009609;28;19964;-94
2023/07/11 03:10:35;;;;;;;;;;;17.00;99.90;;;;;;5007893;28;19925;-94
2023/07/11 03:13:00;;;;;;;;;;;17.00;99.90;;;;;;5004241;28;19925;-94
2023/07/11 03:15:26;;;;;;;;;;;17.00;99.90;;;;;;4994602;28;19926;-95
2023/07/11 03:17:52;;;;;;;;;;;17.00;99.90;;;;;;4985542;28;19936;-96
2023/07/11 03:20:17;;;;;;;;;;;17.00;99.90;;;;;;5005995;28;20150;-96
2023/07/11 03:22:43;;;;;;;;;;;17.00;99.90;;;;;;4989997;28;19933;-95
2023/07/11 03:25:09;;;;;;;;;;;17.00;99.90;;;;;;4988160;28;20025;-96
2023/07/11 03:27:34;;;;;;;;;;;17.00;99.90;;;;;;5003923;28;19925;-94
2023/07/11 03:30:00;;;;;;;;;;;17.00;99.90;;;;;;4989220;28;19926;-96
2023/07/11 03:32:26;;;;;;;;;;;16.90;99.90;;;;;;5002889;28;19936;-95
2023/07/11 03:34:51;;;;;;;;;;;16.90;99.90;;;;;;5018672;28;19937;-94
2023/07/11 03:37:17;;;;;;;;;;;16.90;99.90;;;;;;5003039;28;19925;-96
2023/07/11 03:39:43;;;;;;;;;;;16.90;99.90;;;;;;5000116;28;19926;-95
2023/07/11 03:42:08;;;;;;;;;;;16.80;99.90;;;;;;4987541;28;19965;-96
2023/07/11 03:44:35;;;;;;;;;;;16.80;99.90;;;;;;5027899;28;19975;-96
2023/07/11 03:47:00;;;;;;;;;;;16.70;99.90;;;;;;5010149;28;19926;-94
2023/07/11 03:49:26;;;;;;;;;;;16.70;99.90;;;;;;4987014;28;19932;-96
2023/07/11 03:51:52;;;;;;;;;;;16.70;99.90;;;;;;4989822;28;19993;-96
2023/07/11 03:54:17;;;;;;;;;;;16.70;99.90;;;;;;5000559;28;19933;-96
2023/07/11 03:56:43;;;;;;;;;;;16.70;99.90;;;;;;4995202;28;19925;-95
2023/07/11 03:59:09;;;;;;;;;;;16.70;99.90;;;;;;4995924;28;19960;-96
2023/07/11 04:01:35;;;;;;;;;;;16.70;99.90;;;;;;4987876;28;19990;-96
2023/07/11 04:04:01;;;;;;;;;;;16.70;99.90;;;;;;4990095;28;19997;-95
2023/07/11 04:06:26;;;;;;;;;;;16.70;99.90;;;;;;5006220;28;19925;-95
2023/07/11 04:08:52;;;;;;;;;;;16.80;99.90;;;;;;4989863;28;20392;-94
2023/07/11 04:11:18;;;;;;;;;;;16.70;99.90;;;;;;5007729;28;19997;-94
2023/07/11 04:13:43;;;;;;;;;;;16.70;99.90;;;;;;5007462;28;20001;-96
2023/07/11 04:16:09;;;;;;;;;;;16.80;99.90;;;;;;4994588;28;19925;-95
2023/07/11 04:18:35;;;;;;;;;;;16.80;99.90;;;;;;5009854;28;19925;-96
2023/07/11 04:21:00;;;;;;;;;;;16.80;99.90;;;;;;4992080;28;19936;-96
2023/07/11 04:23:26;;;;;;;;;;;16.90;99.90;;;;;;4986720;28;19997;-95
2023/07/11 04:25:52;;;;;;;;;;;16.90;99.90;;;;;;4996594;28;19922;-94
2023/07/11 04:28:18;;;;;;;;;;;16.90;99.90;;;;;;5010263;28;19925;-94
2023/07/11 04:30:43;;;;;;;;;;;16.90;99.90;;;;;;4987036;28;19925;-96
2023/07/11 04:33:09;;;;;;;;;;;16.90;99.90;;;;;;4995462;28;19925;-94
2023/07/11 04:35:35;;;;;;;;;;;17.00;99.90;;;;;;5005627;28;19926;-95
2023/07/11 04:38:00;;;;;;;;;;;17.00;99.90;;;;;;5001107;28;19930;-95
2023/07/11 04:40:26;;;;;;;;;;;17.00;99.90;;;;;;4990031;28;19937;-95
2023/07/11 04:42:52;;;;;;;;;;;17.10;99.90;;;;;;4985087;28;19933;-95
2023/07/11 04:45:17;;;;;;;;;;;17.10;99.90;;;;;;4989681;28;19925;-95
2023/07/11 04:47:43;;;;;;;;;;;17.10;99.90;;;;;;5005533;28;19926;-95
2023/07/11 04:50:09;;;;;;;;;;;17.10;99.90;;;;;;4990145;28;19929;-95
2023/07/11 04:52:35;;;;;;;;;;;17.10;99.90;;;;;;4990143;28;19933;-95
2023/07/11 04:55:02;;;;;;;;;;;17.10;99.90;;;;;;5002225;28;19937;-94
2023/07/11 04:57:27;;;;;;;;;;;17.10;99.90;;;;;;5002683;28;19926;-96
2023/07/11 04:59:53;;;;;;;;;;;17.10;99.90;;;;;;4980906;28;20017;-96
2023/07/11 05:02:19;;;;;;;;;;;17.10;99.90;;;;;;4985083;28;19926;-95
2023/07/11 05:04:44;;;;;;;;;;;17.10;99.90;;;;;;4980096;28;19980;-96
2023/07/11 05:07:16;;;;;;;;;;;17.10;99.90;;;;;;4978103;28;20064;-96
2023/07/11 05:09:42;;;;;;;;;;;17.20;99.90;;;;;;4999631;28;19984;-95
2023/07/11 05:12:09;;;;;;;;;;;17.30;99.90;;;;;;4989408;28;20226;-94
2023/07/11 05:14:34;;;;;;;;;;;17.40;99.90;;;;;;4986457;28;19921;-96
2023/07/11 05:17:00;;;;;;;;;;;17.50;99.90;;;;;;5005643;28;19932;-96
2023/07/11 05:19:26;;;;;;;;;;;17.60;99.90;;;;;;4994944;28;19922;-96
2023/07/11 05:21:51;;;;;;;;;;;17.70;99.90;;;;;;4994912;28;19940;-96
2023/07/11 05:24:20;;;;;;;;;;;17.80;99.90;;;;;;5022520;28;19926;-96
2023/07/11 05:26:46;;;;;;;;;;;17.90;99.90;;;;;;4978814;28;19926;-95
2023/07/11 05:29:11;;;;;;;;;;;18.00;99.90;;;;;;4971888;28;19961;-96
2023/07/11 05:31:37;;;;;;;;;;;18.10;99.90;;;;;;5002903;28;19933;-95
2023/07/11 05:34:03;;;;;;;;;;;18.20;99.90;;;;;;5005055;28;20000;-96
2023/07/11 05:38:55;;;;;;;;;;;18.50;99.90;;;;;;5021502;28;19932;-95
2023/07/11 05:41:21;;;;;;;;;;;18.60;99.90;;;;;;5008035;28;20355;-95
2023/07/11 05:43:47;;;;;;;;;;;18.60;99.90;;;;;;5025242;28;19965;-95
2023/07/11 05:46:13;;;;;;;;;;;18.70;99.90;;;;;;5000647;28;19917;-95
2023/07/11 05:48:57;;;;;;;;;;;18.80;99.90;;;;;;5053005;22;20016;-91
2023/07/11 05:51:30;;;;;;;;;;;18.80;99.90;;;;;;5027856;28;19932;-92
2023/07/11 05:53:58;;;;;;;;;;;18.90;99.90;;;;;;4997902;28;20005;-92
2023/07/11 05:56:33;;;;;;;;;;;18.90;99.90;;;;;;5016661;28;19939;-93
2023/07/11 05:59:08;;;;;;;;;;;19.00;99.90;;;;;;5030642;28;19932;-92
2023/07/11 06:01:42;;;;;;;;;;;19.00;99.90;;;;;;5026523;28;19925;-93
2023/07/11 06:04:11;;;;;;;;;;;19.10;99.90;;;;;;4991131;28;20350;-92
2023/07/11 06:06:49;;;;;;;;;;;19.10;99.90;;;;;;5018941;28;19926;-91
2023/07/11 06:09:22;;;;;;;;;;;19.20;99.90;;;;;;5009662;28;19929;-87
2023/07/11 06:11:49;;;;;;;;;;;19.20;99.90;;;;;;5002998;28;19971;-87
2023/07/11 06:14:15;;;;;;;;;;;19.30;99.90;;;;;;4989063;28;19929;-87
2023/07/11 06:16:46;;;;;;;;;;;19.30;99.90;;;;;;5021054;28;19965;-88
2023/07/11 06:19:14;;;;;;;;;;;19.30;99.90;;;;;;4997429;28;19941;-88
2023/07/11 06:21:43;;;;;;;;;;;19.30;99.90;;;;;;5010030;28;19975;-87
2023/07/11 06:24:09;;;;;;;;;;;19.20;99.90;;;;;;5042403;28;19932;-88
2023/07/11 06:26:37;;;;;;;;;;;19.40;99.90;;;;;;5040233;28;19996;-87
2023/07/11 06:29:10;;;;;;;;;;;19.40;99.90;;;;;;5041601;28;20265;-88
2023/07/11 06:31:41;;;;;;;;;;;19.70;99.90;;;;;;5043389;28;19941;-88
2023/07/11 06:34:12;;;;;;;;;;;19.50;99.90;;;;;;5029163;28;19936;-87
2023/07/11 06:36:40;;;;;;;;;;;19.60;99.90;;;;;;5022702;28;19914;-87
2023/07/11 06:39:13;;;;;;;;;;;19.50;99.90;;;;;;5006726;28;19981;-87
2023/07/11 06:41:39;;;;;;;;;;;19.70;99.90;;;;;;5004993;28;19948;-87
2023/07/11 06:44:06;;;;;;;;;;;19.70;99.90;;;;;;4993200;28;20358;-87
2023/07/11 06:46:34;;;;;;;;;;;19.80;99.90;;;;;;5004938;28;19930;-87
2023/07/11 06:49:04;;;;;;;;;;;19.80;99.90;;;;;;5011118;28;19925;-87
2023/07/11 06:51:30;;;;;;;;;;;19.90;99.90;;;;;;5008105;28;20016;-87
2023/07/11 06:54:05;;;;;;;;;;;19.90;99.90;;;;;;5016328;28;19972;-87
2023/07/11 06:56:36;;;;;;;;;;;20.00;99.90;;;;;;5031493;28;20439;-87
2023/07/11 06:59:02;;;;;;;;;;;20.20;99.90;;;;;;5015908;28;19932;-87
2023/07/11 07:01:30;;;;;;;;;;;20.20;99.90;;;;;;5021981;28;19926;-87
2023/07/11 07:04:00;;;;;;;;;;;20.30;99.90;;;;;;4992316;28;19925;-87
2023/07/11 07:06:26;;;;;;;;;;;20.70;99.90;;;;;;5001776;28;19925;-88
2023/07/11 07:08:52;;;;;;;;;;;20.40;99.90;;;;;;5016072;28;19980;-87
2023/07/11 07:11:21;;;;;;;;;;;20.50;99.90;;;;;;5006506;28;19968;-90
2023/07/11 07:13:54;;;;;;;;;;;20.60;99.90;;;;;;5006959;28;19939;-88
2023/07/11 07:16:22;;;;;;;;;;;20.80;99.90;;;;;;5006408;28;19929;-87
2023/07/11 07:18:47;;;;;;;;;;;20.90;99.90;;;;;;4992345;28;19925;-87
2023/07/11 07:21:15;;;;;;;;;;;21.10;99.90;;;;;;5020055;28;19925;-88
2023/07/11 07:23:43;;;;;;;;;;;21.20;99.90;;;;;;4998310;28;19948;-87
2023/07/11 07:26:11;;;;;;;;;;;21.40;99.90;;;;;;5010324;28;19925;-87
2023/07/11 07:28:37;;;;;;;;;;;21.60;99.90;;;;;;5020147;28;20341;-87
2023/07/11 07:31:05;;;;;;;;;;;21.50;99.90;;;;;;5015250;28;19983;-88
2023/07/11 07:33:40;;;;;;;;;;;21.80;99.90;;;;;;5015179;28;19929;-87
2023/07/11 07:36:27;;;;;;;;;;;21.90;99.90;;;;;;4999731;28;19931;-88
2023/07/11 07:38:52;;;;;;;;;;;22.00;99.90;;;;;;5027520;28;19936;-87
2023/07/11 07:41:26;;;;;;;;;;;22.10;99.90;;;;;;5014154;28;19952;-87
2023/07/11 07:43:52;;;;;;;;;;;22.20;99.90;;;;;;5015466;28;19944;-88
2023/07/11 07:46:23;;;;;;;;;;;22.30;99.90;;;;;;5006319;28;19932;-88
2023/07/11 07:48:51;;;;;;;;;;;22.40;99.90;;;;;;4997703;28;19925;-87
2023/07/11 07:51:21;;;;;;;;;;;22.20;99.90;;;;;;5025222;28;20010;-88
2023/07/11 07:53:49;;;;;;;;;;;22.40;99.90;;;;;;5015810;28;19925;-88
2023/07/11 07:56:16;;;;;;;;;;;22.50;99.90;;;;;;5017326;28;19929;-88
2023/07/11 07:58:48;;;;;;;;;;;22.50;99.90;;;;;;5014261;28;19929;-88
2023/07/11 08:01:15;;;;;;;;;;;22.60;99.90;;;;;;5002902;28;20012;-88
2023/07/11 08:03:43;;;;;;;;;;;22.60;99.90;;;;;;5004787;28;19925;-88
2023/07/11 08:06:12;;;;;;;;;;;22.70;99.90;;;;;;5021247;28;19979;-87
2023/07/11 08:08:39;;;;;;;;;;;22.80;99.90;;;;;;5030437;28;19931;-88
2023/07/11 08:11:06;;;;;;;;;;;22.90;99.90;;;;;;5008809;28;19933;-87
2023/07/11 08:13:34;;;;;;;;;;;22.90;99.90;;;;;;5025763;28;20341;-88
2023/07/11 08:16:03;;;;;;;;;;;23.10;99.90;;;;;;5006821;28;19980;-87
2023/07/11 08:18:38;;;;;;;;;;;23.20;99.90;;;;;;5014423;28;20008;-87
2023/07/11 08:21:07;;;;;;;;;;;23.30;99.90;;;;;;4999096;28;20294;-88
2023/07/11 08:23:33;;;;;;;;;;;23.50;99.90;;;;;;5022823;28;20294;-87
2023/07/11 08:25:59;;;;;;;;;;;23.60;99.90;;;;;;4988012;28;19925;-87
2023/07/11 08:28:27;;;;;;;;;;;23.60;99.90;;;;;;5023306;28;20392;-87
2023/07/11 08:30:53;;;;;;;;;;;23.60;99.90;;;;;;5002295;28;19930;-88
2023/07/11 08:33:21;;;;;;;;;;;23.70;99.90;;;;;;5011451;28;19932;-88
2023/07/11 08:35:47;;;;;;;;;;;23.60;99.90;;;;;;5022671;28;19925;-87
2023/07/11 08:38:13;;;;;;;;;;;23.60;99.90;;;;;;4988344;28;20010;-87
2023/07/11 08:40:43;;;;;;;;;;;23.70;99.90;;;;;;5005982;28;19926;-88
2023/07/11 08:43:12;;;;;;;;;;;23.70;99.90;;;;;;5005701;28;20366;-87
2023/07/11 08:45:50;;;;;;;;;;;23.70;99.90;;;;;;5005357;28;19976;-87
2023/07/11 08:48:25;;;;;;;;;;;23.70;99.90;;;;;;5020071;28;19926;-88
2023/07/11 08:51:09;;;;;;;;;;;23.90;99.90;;;;;;4994962;28;19926;-88
2023/07/11 08:53:41;;;;;;;;;;;23.90;99.90;;;;;;5004237;28;19977;-88
2023/07/11 08:56:32;;;;;;;;;;;24.00;99.90;;;;;;5009221;28;20429;-89
2023/07/11 08:59:02;;;;;;;;;;;24.10;99.90;;;;;;4993093;28;19972;-87
2023/07/11 09:01:35;;;;;;;;;;;24.10;99.90;;;;;;5022166;28;20020;-87
2023/07/11 09:04:01;;;;;;;;;;;24.20;99.90;;;;;;4997303;28;20439;-88
2023/07/11 09:06:32;;;;;;;;;;;24.40;99.90;;;;;;4992237;28;19926;-88
2023/07/11 09:08:59;;;;;;;;;;;24.50;99.90;;;;;;5007162;28;19925;-87
2023/07/11 09:11:33;;;;;;;;;;;24.60;99.90;;;;;;4999864;28;19929;-87
2023/07/11 09:14:17;;;;;;;;;;;24.80;99.90;;;;;;5013378;28;20008;-88
2023/07/11 09:17:05;;;;;;;;;;;24.90;99.90;;;;;;5006808;28;19932;-87
2023/07/11 09:19:38;;;;;;;;;;;25.00;99.90;;;;;;4992397;28;20294;-87
2023/07/11 09:22:20;;;;;;;;;;;25.10;99.90;;;;;;5015479;28;20453;-87
2023/07/11 09:24:58;;;;;;;;;;;25.20;99.90;;;;;;4999608;28;19933;-87
2023/07/11 09:27:31;;;;;;;;;;;25.50;99.90;;;;;;5023180;28;19936;-87
2023/07/11 09:29:57;;;;;;;;;;;25.60;99.90;;;;;;5013102;28;19926;-87
2023/07/11 09:32:32;;;;;;;;;;;25.70;99.90;;;;;;5014712;28;19947;-87
2023/07/11 09:35:06;;;;;;;;;;;25.80;99.90;;;;;;5021422;28;19925;-87
2023/07/11 09:37:42;;;;;;;;;;;25.80;99.90;;;;;;5017743;28;19925;-88
2023/07/11 09:40:11;;;;;;;;;;;25.90;99.90;;;;;;5019103;28;20405;-88
2023/07/11 09:42:43;;;;;;;;;;;26.10;99.90;;;;;;5031500;28;19925;-87
2023/07/11 09:45:10;;;;;;;;;;;26.20;99.90;;;;;;5027991;28;19931;-88
2023/07/11 09:47:36;;;;;;;;;;;26.20;99.60;;;;;;5043182;28;19998;-87
2023/07/11 09:50:10;;;;;;;;;;;26.20;99.90;;;;;;5018503;28;19972;-90
2023/07/11 09:52:37;;;;;;;;;;;26.20;99.30;;;;;;5008762;28;19925;-87
2023/07/11 09:55:03;;;;;;;;;;;26.20;99.90;;;;;;5012696;28;19948;-90
2023/07/11 09:57:31;;;;;;;;;;;26.20;98.50;;;;;;5014320;28;19975;-88
2023/07/11 10:00:03;;;;;;;;;;;26.20;98.00;;;;;;4997164;28;19925;-87
2023/07/11 10:02:29;;;;;;;;;;;26.10;99.20;;;;;;5014591;28;19925;-88
2023/07/11 10:04:58;;;;;;;;;;;26.00;97.40;;;;;;4981519;28;19971;-86
2023/07/11 10:07:28;;;;;;;;;;;26.00;98.20;;;;;;5003851;28;19936;-87
2023/07/11 10:10:01;;;;;;;;;;;26.00;98.90;;;;;;5011833;28;19933;-87
2023/07/11 10:12:26;;;;;;;;;;;25.90;97.20;;;;;;4992074;28;19933;-87
2023/07/11 10:14:59;;;;;;;;;;;25.80;97.60;;;;;;5003546;28;19926;-88
2023/07/11 10:17:31;;;;;;;;;;;25.80;98.70;;;;;;5021506;28;19932;-87
2023/07/11 10:20:01;;;;;;;;;;;25.80;98.80;;;;;;4996232;28;19926;-87
2023/07/11 10:22:28;;;;;;;;;;;26.00;98.70;;;;;;4985335;28;19925;-89
2023/07/11 10:25:03;;;;;;;;;;;26.00;97.50;;;;;;5004340;28;19926;-87
2023/07/11 10:27:36;;;;;;;;;;;26.10;97.70;;;;;;5018930;28;19933;-87
2023/07/11 10:30:03;;;;;;;;;;;26.30;98.10;;;;;;5006115;28;20325;-86
2023/07/11 10:32:32;;;;;;;;;;;26.50;97.70;;;;;;5009820;28;19929;-87
2023/07/11 10:35:01;;;;;;;;;;;26.60;97.80;;;;;;5012717;28;20342;-87
2023/07/11 10:37:33;;;;;;;;;;;26.40;95.30;;;;;;5002040;28;19968;-87
2023/07/11 10:40:03;;;;;;;;;;;26.50;96.60;;;;;;5019007;28;19926;-86
2023/07/11 10:42:42;;;;;;;;;;;26.50;96.40;;;;;;4994676;28;19933;-86
2023/07/11 10:45:14;;;;;;;;;;;26.40;96.70;;;;;;5019375;28;20024;-87
2023/07/11 10:47:59;;;;;;;;;;;26.60;97.10;;;;;;5000706;28;20368;-87
2023/07/11 10:50:37;;;;;;;;;;;26.80;96.50;;;;;;5019383;28;19948;-86
2023/07/11 10:53:10;;;;;;;;;;;26.90;97.40;;;;;;4990498;28;19932;-87
2023/07/11 10:55:42;;;;;;;;;;;27.00;96.80;;;;;;5022062;28;20015;-88
2023/07/11 10:58:08;;;;;;;;;;;27.10;96.30;;;;;;5014799;28;19979;-87
2023/07/11 11:00:55;;;;;;;;;;;27.00;95.90;;;;;;5006486;28;19930;-86
2023/07/11 11:03:38;;;;;;;;;;;27.00;96.70;;;;;;5004303;28;19971;-87
2023/07/11 11:06:40;;;;;;;;;;;27.20;95.80;;;;;;5003227;28;19929;-87
2023/07/11 11:09:15;;;;;;;;;;;27.40;97.00;;;;;;4987937;28;20004;-87
2023/07/11 11:11:43;;;;;;;;;;;27.40;95.70;;;;;;5016608;28;20012;-87
2023/07/11 11:14:15;;;;;;;;;;;27.40;96.90;;;;;;5001579;28;20273;-87
2023/07/11 11:16:43;;;;;;;;;;;27.50;96.20;;;;;;5014840;28;19925;-86
2023/07/11 11:19:09;;;;;;;;;;;27.30;95.70;;;;;;5023724;28;19925;-85
2023/07/11 11:21:34;;;;;;;;;;;27.50;96.10;;;;;;5025523;28;19931;-88
2023/07/11 11:24:17;;;;;;;;;;;27.50;97.00;;;;;;4992315;28;20377;-87
2023/07/11 11:26:46;;;;;;;;;;;27.50;97.60;;;;;;4990192;28;20339;-88
2023/07/11 11:29:12;;;;;;;;;;;27.40;95.70;;;;;;5019906;28;19934;-86
2023/07/11 11:31:49;;;;;;;;;;;27.30;95.60;;;;;;5014484;28;20362;-87
2023/07/11 11:34:15;;;;;;;;;;;27.40;97.40;;;;;;5024190;28;20030;-87
2023/07/11 11:36:48;;;;;;;;;;;27.50;95.30;;;;;;5001781;28;19965;-87
2023/07/11 11:39:26;;;;;;;;;;;27.60;95.30;;;;;;5019904;28;19948;-87
2023/07/11 11:41:56;;;;;;;;;;;27.60;95.00;;;;;;5012541;28;19925;-88
2023/07/11 11:44:28;;;;;;;;;;;27.70;93.60;;;;;;5007130;28;20055;-86
2023/07/11 11:46:57;;;;;;;;;;;27.90;92.70;;;;;;4989282;28;19929;-87
2023/07/11 11:49:25;;;;;;;;;;;28.00;93.60;;;;;;5014421;28;20012;-85
2023/07/11 11:51:52;;;;;;;;;;;27.90;91.40;;;;;;5007757;28;20316;-87
2023/07/11 11:54:19;;;;;;;;;;;27.80;93.00;;;;;;4998953;28;20020;-87
2023/07/11 11:56:47;;;;;;;;;;;27.80;93.10;;;;;;4998680;28;19925;-86
2023/07/11 11:59:20;;;;;;;;;;;27.80;93.80;;;;;;5021039;28;20024;-87
2023/07/11 12:01:46;;;;;;;;;;;28.10;93.40;;;;;;4988186;28;19925;-86
2023/07/11 12:04:38;;;;;;;;;;;28.50;93.20;;;;;;4999316;28;19942;-87
2023/07/11 12:07:13;;;;;;;;;;;28.70;92.30;;;;;;4998100;28;19932;-87
2023/07/11 12:09:49;;;;;;;;;;;28.80;92.30;;;;;;5015090;28;19968;-87
2023/07/11 12:12:16;;;;;;;;;;;28.70;93.80;;;;;;5006967;28;19976;-86
2023/07/11 12:14:56;;;;;;;;;;;28.80;92.30;;;;;;5021820;28;20350;-87
2023/07/11 12:17:31;;;;;;;;;;;28.70;91.70;;;;;;5016767;28;19933;-86
2023/07/11 12:20:00;;;;;;;;;;;28.60;91.80;;;;;;5029514;28;19925;-87
2023/07/11 12:22:52;;;;;;;;;;;28.60;92.40;;;;;;5027802;28;19925;-87
2023/07/11 12:25:24;;;;;;;;;;;28.60;93.30;;;;;;5028218;28;19925;-87
2023/07/11 12:27:53;;;;;;;;;;;28.70;91.20;;;;;;5029167;28;19936;-88
2023/07/11 12:30:28;;;;;;;;;;;28.50;91.40;;;;;;5020480;28;19925;-86
2023/07/11 12:32:55;;;;;;;;;;;28.60;90.70;;;;;;5026419;28;19930;-88
2023/07/11 12:35:24;;;;;;;;;;;28.50;91.40;;;;;;5020657;28;19934;-87
2023/07/11 12:38:04;;;;;;;;;;;28.50;91.80;;;;;;5001737;28;19996;-87
2023/07/11 12:40:41;;;;;;;;;;;28.50;90.80;;;;;;5003985;28;19976;-86
2023/07/11 12:43:19;;;;;;;;;;;28.60;91.20;;;;;;4991987;28;20404;-86
2023/07/11 12:45:48;;;;;;;;;;;28.80;91.30;;;;;;5023047;28;20341;-88
2023/07/11 12:48:15;;;;;;;;;;;29.00;92.00;;;;;;5005700;28;19926;-87
2023/07/11 12:50:45;;;;;;;;;;;29.10;92.40;;;;;;4996264;28;19929;-87
2023/07/11 12:53:14;;;;;;;;;;;29.20;91.90;;;;;;5021120;28;19933;-87
2023/07/11 12:55:47;;;;;;;;;;;29.30;93.90;;;;;;5025903;28;19917;-88
2023/07/11 12:58:17;;;;;;;;;;;29.00;92.50;;;;;;5034405;28;19913;-87
2023/07/11 13:00:43;;;;;;;;;;;28.90;93.00;;;;;;5041267;28;19956;-90
2023/07/11 13:03:18;;;;;;;;;;;28.60;91.90;;;;;;5014118;28;19926;-87
2023/07/11 13:06:02;;;;;;;;;;;28.50;93.30;;;;;;5042227;28;19929;-87
2023/07/11 13:08:29;;;;;;;;;;;28.50;93.10;;;;;;5024659;28;19926;-87
2023/07/11 13:10:55;;;;;;;;;;;28.00;92.60;;;;;;5014327;28;19936;-87
2023/07/11 13:13:21;;;;;;;;;;;27.80;93.50;;;;;;5004231;28;19925;-87
2023/07/11 13:15:47;;;;;;;;;;;27.60;93.30;;;;;;5009802;28;19975;-87
2023/07/11 13:18:28;;;;;;;;;;;27.50;93.60;;;;;;4991299;28;19932;-86
2023/07/11 13:20:54;;;;;;;;;;;27.40;94.10;;;;;;4991241;28;20020;-87
2023/07/11 13:23:20;;;;;;;;;;;27.40;93.70;;;;;;4994760;28;20004;-86
2023/07/11 13:25:45;;;;;;;;;;;27.60;93.50;;;;;;4997093;28;20505;-86
2023/07/11 13:28:16;;;;;;;;;;;27.30;93.60;;;;;;5018532;28;19925;-86
2023/07/11 13:30:42;;;;;;;;;;;27.20;92.50;;;;;;4981314;28;19980;-86
2023/07/11 13:33:17;;;;;;;;;;;27.30;95.10;;;;;;5015979;28;19926;-87
2023/07/11 13:35:49;;;;;;;;;;;27.30;93.90;;;;;;5019935;28;19968;-88
2023/07/11 13:38:15;;;;;;;;;;;26.80;93.30;;;;;;5022806;28;19926;-87
2023/07/11 13:40:42;;;;;;;;;;;27.50;94.20;;;;;;5008511;28;20389;-87
2023/07/11 13:43:15;;;;;;;;;;;27.40;93.10;;;;;;5022781;28;19925;-87
2023/07/11 13:45:41;;;;;;;;;;;27.30;93.50;;;;;;5034946;28;20292;-87
2023/07/11 13:48:14;;;;;;;;;;;27.30;93.10;;;;;;5003348;28;20020;-86
2023/07/11 13:50:40;;;;;;;;;;;27.30;93.80;;;;;;5015522;28;19926;-87
2023/07/11 13:53:15;;;;;;;;;;;27.40;94.80;;;;;;5006974;28;19973;-86
2023/07/11 13:55:48;;;;;;;;;;;27.60;93.80;;;;;;5016156;28;19926;-86
2023/07/11 13:58:14;;;;;;;;;;;27.60;93.60;;;;;;5019198;28;20297;-87
2023/07/11 14:00:45;;;;;;;;;;;27.40;94.10;;;;;;4998970;28;19932;-87
2023/07/11 14:03:15;;;;;;;;;;;27.60;94.20;;;;;;5014268;28;20016;-86
2023/07/11 14:05:44;;;;;;;;;;;27.70;93.50;;;;;;5006051;28;19925;-86
2023/07/11 14:08:10;;;;;;;;;;;27.70;92.90;;;;;;5031416;28;19925;-86
2023/07/11 14:10:35;;;;;;;;;;;27.60;94.20;;;;;;5007301;28;19925;-87
2023/07/11 14:13:01;;;;;;;;;;;27.50;93.60;;;;;;4996339;28;19929;-88
2023/07/11 14:15:27;;;;;;;;;;;27.70;93.70;;;;;;5013549;28;19925;-88
2023/07/11 14:17:54;;;;;;;;;;;27.90;93.70;;;;;;5017756;28;19933;-86
2023/07/11 14:20:21;;;;;;;;;;;27.90;92.10;;;;;;5031116;28;20281;-87
2023/07/11 14:22:47;;;;;;;;;;;27.90;92.80;;;;;;5018725;28;20351;-87
2023/07/11 14:25:18;;;;;;;;;;;27.80;93.90;;;;;;5020089;28;19926;-86
2023/07/11 14:27:47;;;;;;;;;;;27.80;94.00;;;;;;5027020;28;20292;-86